Time;durP1;ratioP1;P1;durP2;ratioP2;P2;SDS_P1;SDS_P2;PMS_P1;PMS_P2;Temp;Humidity;BMP_temperature;BMP_pressure;BME280_temperature;BME280_humidity;BME280_pressure;Samples;Min_cycle;Max_cycle;Signal;HPM_P1;HPM_P2
2022/01/24 00:00:22;;;;;;;4.55;4.05;;;2.00;99.90;;;;;;5015365;28;20209;-72
2022/01/24 00:02:48;;;;;;;6.45;5.28;;;1.90;99.90;;;;;;5014367;28;20166;-71
2022/01/24 00:05:16;;;;;;;9.73;4.97;;;1.90;99.90;;;;;;5015319;28;20190;-70
2022/01/24 00:07:42;;;;;;;4.38;3.72;;;1.80;99.90;;;;;;5014419;28;20519;-72
2022/01/24 00:10:13;;;;;;;4.00;3.50;;;1.80;99.90;;;;;;5015205;28;20261;-70
2022/01/24 00:15:16;;;;;;;5.03;3.43;;;1.60;99.90;;;;;;5014423;28;20182;-71
2022/01/24 00:17:49;;;;;;;5.70;4.03;;;1.60;99.90;;;;;;5014538;28;20174;-71
2022/01/24 00:28:27;;;;;;;5.78;3.92;;;1.40;99.90;;;;;;5014281;28;20177;-72
2022/01/24 00:30:54;;;;;;;5.47;4.18;;;1.40;99.90;;;;;;5014915;28;20186;-72
2022/01/24 00:33:20;;;;;;;5.53;3.65;;;1.30;99.90;;;;;;5014859;28;20167;-70
2022/01/24 00:35:47;;;;;;;3.80;3.33;;;1.30;99.90;;;;;;5013089;28;20167;-70
2022/01/24 00:38:13;;;;;;;5.47;4.15;;;1.20;99.90;;;;;;5014346;28;20629;-70
2022/01/24 00:40:42;;;;;;;5.53;4.50;;;1.20;99.90;;;;;;5014529;28;20199;-71
2022/01/24 00:43:31;;;;;;;7.93;3.50;;;1.20;99.90;;;;;;5013965;28;20203;-72
2022/01/24 00:56:10;;;;;;;7.78;3.50;;;1.30;99.90;;;;;;5014667;28;20308;-71
2022/01/24 00:58:36;;;;;;;2.80;2.60;;;1.30;99.90;;;;;;5013108;28;20181;-70
2022/01/24 01:01:03;;;;;;;4.13;3.70;;;1.30;99.90;;;;;;5014179;28;20692;-70
2022/01/24 01:03:29;;;;;;;6.25;3.83;;;1.30;99.90;;;;;;5014080;28;20552;-71
2022/01/24 01:19:29;;;;;;;3.15;2.90;;;1.30;99.90;;;;;;5013637;28;20193;-71
2022/01/24 01:21:56;;;;;;;4.32;3.85;;;1.30;99.90;;;;;;4996520;28;20187;-71
2022/01/24 01:24:24;;;;;;;4.37;2.90;;;1.30;99.90;;;;;;5013922;28;20258;-71
2022/01/24 01:26:55;;;;;;;6.10;2.97;;;1.20;99.90;;;;;;5013877;28;20273;-71
2022/01/24 01:29:29;;;;;;;3.30;2.90;;;1.30;99.90;;;;;;5013381;28;20526;-71
2022/01/24 01:56:06;;;;;;;3.77;2.87;;;1.00;99.90;;;;;;5013515;28;20265;-71
2022/01/24 01:58:31;;;;;;;5.80;3.38;;;0.90;99.90;;;;;;5013247;28;20170;-71
2022/01/24 02:01:02;;;;;;;5.60;3.00;;;0.90;99.90;;;;;;5013660;28;20175;-71
2022/01/24 02:03:30;;;;;;;3.13;2.10;;;0.90;99.90;;;;;;5013558;28;20163;-70
2022/01/24 02:05:56;;;;;;;5.78;4.60;;;0.80;99.90;;;;;;5013238;28;20174;-75
2022/01/24 02:08:23;;;;;;;4.50;4.10;;;0.70;99.90;;;;;;5027579;28;20179;-71
2022/01/24 02:10:49;;;;;;;3.67;3.38;;;0.70;99.90;;;;;;5012979;28;20335;-72
2022/01/24 02:13:15;;;;;;;6.17;3.43;;;0.70;99.90;;;;;;5012885;28;20265;-71
2022/01/24 02:26:15;;;;;;;5.65;3.55;;;0.60;99.90;;;;;;5017396;28;20223;-72
2022/01/24 02:34:24;;;;;;;4.15;3.63;;;0.60;99.90;;;;;;5017119;28;20181;-71
2022/01/24 02:36:50;;;;;;;2.88;2.55;;;0.60;99.90;;;;;;5016805;28;20182;-72
2022/01/24 02:49:57;;;;;;;3.83;3.58;;;0.50;99.90;;;;;;4996729;28;20270;-72
2022/01/24 02:52:25;;;;;;;3.33;2.90;;;0.40;99.90;;;;;;4997012;28;20207;-72
2022/01/24 02:54:51;;;;;;;3.50;3.30;;;0.40;99.90;;;;;;4996884;28;20190;-72
2022/01/24 02:57:19;;;;;;;3.77;3.37;;;0.40;99.90;;;;;;4996892;28;20170;-71
2022/01/24 02:59:46;;;;;;;3.50;3.20;;;0.40;99.90;;;;;;5016214;28;20805;-71
2022/01/24 03:02:12;;;;;;;3.72;3.40;;;0.40;99.90;;;;;;5015248;28;20668;-71
2022/01/24 03:04:40;;;;;;;2.57;2.40;;;0.40;99.90;;;;;;5016488;28;20175;-71
2022/01/24 03:07:07;;;;;;;2.67;2.58;;;0.30;99.90;;;;;;5004964;28;20445;-71
2022/01/24 03:09:33;;;;;;;3.40;3.20;;;0.30;99.90;;;;;;4994389;28;20205;-71
2022/01/24 03:12:07;;;;;;;3.72;3.47;;;0.30;99.90;;;;;;4996703;28;20271;-70
2022/01/24 03:14:35;;;;;;;4.20;3.63;;;0.30;99.90;;;;;;4996576;28;20166;-71
2022/01/24 03:17:04;;;;;;;3.80;3.42;;;0.20;99.90;;;;;;4996626;28;20225;-72
2022/01/24 03:19:30;;;;;;;3.03;2.75;;;0.20;99.90;;;;;;4994278;28;20281;-71
2022/01/24 03:21:55;;;;;;;5.38;3.88;;;0.10;99.90;;;;;;5008776;28;20216;-71
2022/01/24 03:24:22;;;;;;;5.00;3.17;;;0.10;99.90;;;;;;5014925;28;20271;-71
2022/01/24 03:26:49;;;;;;;3.47;3.17;;;0.10;99.90;;;;;;5015887;28;20903;-72
2022/01/24 03:29:15;;;;;;;4.22;3.92;;;0.10;99.90;;;;;;5012855;28;20195;-71
2022/01/24 03:31:42;;;;;;;3.20;3.00;;;0.10;99.90;;;;;;5015950;28;20209;-72
2022/01/24 03:34:09;;;;;;;2.70;2.42;;;0.20;99.90;;;;;;4998736;28;20181;-71
2022/01/24 03:36:34;;;;;;;3.22;3.03;;;0.10;99.90;;;;;;5013561;28;20706;-73
2022/01/24 03:39:00;;;;;;;2.97;2.77;;;0.20;99.90;;;;;;5015383;28;20191;-71
2022/01/24 03:41:27;;;;;;;6.10;3.90;;;0.10;99.90;;;;;;5015811;28;20178;-70
2022/01/24 03:44:01;;;;;;;4.88;3.35;;;0.10;99.90;;;;;;5030411;28;20505;-74
2022/01/24 03:46:35;;;;;;;1.58;1.48;;;0.10;99.90;;;;;;5015767;28;20239;-72
2022/01/24 03:49:44;;;;;;;5.93;3.17;;;0.10;99.90;;;;;;5015264;28;20198;-71
2022/01/24 03:51:48;;;;;;;4.63;4.22;;;0.10;99.90;;;;;;5014949;28;20214;-70
2022/01/24 03:54:14;;;;;;;8.30;3.07;;;0.10;99.90;;;;;;5015236;28;20183;-72
2022/01/24 03:56:39;;;;;;;10.00;3.97;;;0.20;99.90;;;;;;5013636;28;20178;-72
2022/01/24 03:59:06;;;;;;;3.43;3.13;;;0.10;99.90;;;;;;5014903;28;20194;-72
2022/01/24 04:01:32;;;;;;;4.68;4.28;;;0.20;99.90;;;;;;5015388;28;20170;-72
2022/01/24 04:03:58;;;;;;;3.80;3.50;;;0.20;99.90;;;;;;5015253;28;20173;-72
2022/01/24 04:06:23;;;;;;;6.10;3.10;;;0.20;99.90;;;;;;5013010;28;20264;-70
2022/01/24 04:08:49;;;;;;;4.27;3.80;;;0.10;99.90;;;;;;5014650;28;20187;-70
2022/01/24 04:11:15;;;;;;;3.67;3.37;;;0.10;99.90;;;;;;5015239;28;20194;-72
2022/01/24 04:13:43;;;;;;;7.67;4.43;;;0.10;99.90;;;;;;5014838;28;20565;-72
2022/01/24 04:16:25;;;;;;;4.57;3.78;;;0.10;99.90;;;;;;5015185;28;20168;-71
2022/01/24 04:21:37;;;;;;;7.55;2.35;;;0.10;99.90;;;;;;5015303;28;20184;-70
2022/01/24 04:24:07;;;;;;;3.83;3.08;;;0.10;99.90;;;;;;5014704;28;20599;-72
2022/01/24 04:26:35;;;;;;;4.00;2.80;;;0.10;99.90;;;;;;5015044;28;20174;-71
2022/01/24 04:29:02;;;;;;;2.95;2.75;;;0.00;99.90;;;;;;5014264;28;20206;-71
2022/01/24 04:31:28;;;;;;;4.18;2.95;;;0.10;99.90;;;;;;5014789;28;20237;-72
2022/01/24 04:33:54;;;;;;;2.58;2.33;;;0.00;99.90;;;;;;5014693;28;20220;-72
2022/01/24 04:36:21;;;;;;;4.00;3.70;;;0.00;99.90;;;;;;5013764;28;20210;-73
2022/01/24 04:38:47;;;;;;;3.75;3.45;;;0.00;99.90;;;;;;5014023;28;20411;-71
2022/01/24 04:41:20;;;;;;;4.05;3.63;;;0.00;99.90;;;;;;5014145;28;20165;-69
2022/01/24 04:46:31;;;;;;;3.65;3.22;;;0.10;99.90;;;;;;5014797;28;20198;-71
2022/01/24 04:56:56;;;;;;;3.17;2.97;;;0.10;99.90;;;;;;5014331;28;20254;-70
2022/01/24 04:59:21;;;;;;;3.70;3.30;;;0.10;99.90;;;;;;5011938;28;20285;-71
2022/01/24 05:01:47;;;;;;;4.80;4.30;;;0.10;99.90;;;;;;5029257;28;20412;-70
2022/01/24 05:04:13;;;;;;;3.73;3.43;;;0.10;99.90;;;;;;5014283;28;20221;-70
2022/01/24 05:06:39;;;;;;;6.33;3.63;;;0.10;99.90;;;;;;5013449;28;20664;-70
2022/01/24 05:09:05;;;;;;;6.43;5.00;;;0.10;99.90;;;;;;5013361;28;20447;-70
2022/01/24 05:25:01;;;;;;;6.75;2.95;;;-0.20;99.90;;;;;;5012596;28;20684;-71
2022/01/24 05:27:27;;;;;;;5.07;3.73;;;-0.20;99.90;;;;;;5013157;28;20437;-75
2022/01/24 05:29:53;;;;;;;3.33;3.00;;;-0.10;99.90;;;;;;5013524;28;20205;-71
2022/01/24 05:32:18;;;;;;;2.83;2.60;;;-0.20;99.90;;;;;;5013911;28;20264;-71
2022/01/24 05:34:44;;;;;;;4.67;2.73;;;-0.20;99.90;;;;;;5013669;28;20210;-71
2022/01/24 05:37:09;;;;;;;3.80;3.50;;;-0.20;99.90;;;;;;5012985;28;20171;-70
2022/01/24 05:39:35;;;;;;;4.13;3.70;;;-0.20;99.90;;;;;;5013200;28;20193;-70
2022/01/24 05:42:01;;;;;;;2.70;2.47;;;-0.20;99.90;;;;;;5013212;28;20178;-70
2022/01/24 05:44:26;;;;;;;4.93;3.40;;;-0.10;99.90;;;;;;5012931;28;20184;-70
2022/01/24 05:46:52;;;;;;;3.33;3.07;;;-0.10;99.90;;;;;;5013410;28;20186;-71
2022/01/24 05:49:17;;;;;;;4.90;3.80;;;0.00;99.90;;;;;;5013199;28;20199;-71
2022/01/24 05:51:43;;;;;;;2.27;2.17;;;0.00;99.90;;;;;;5013970;28;20206;-70
2022/01/24 05:54:11;;;;;;;5.63;3.10;;;0.10;99.90;;;;;;5017758;28;20173;-70
2022/01/24 05:56:36;;;;;;;3.33;2.65;;;0.10;99.90;;;;;;5017372;28;20177;-70
2022/01/24 05:59:02;;;;;;;7.00;3.13;;;0.20;99.90;;;;;;5016931;28;20202;-71
2022/01/24 06:01:28;;;;;;;6.60;6.00;;;0.30;99.90;;;;;;5017525;28;20185;-71
2022/01/24 06:03:53;;;;;;;2.67;2.47;;;0.40;99.90;;;;;;5017559;28;20174;-71
2022/01/24 06:06:19;;;;;;;10.43;3.03;;;0.40;99.90;;;;;;5032141;28;20182;-69
2022/01/24 06:08:44;;;;;;;9.80;3.43;;;0.50;99.90;;;;;;5017137;28;20197;-73
2022/01/24 06:11:10;;;;;;;4.03;3.63;;;0.60;99.90;;;;;;5017269;28;20202;-71
2022/01/24 06:13:36;;;;;;;3.73;3.40;;;0.60;99.90;;;;;;5017086;28;20241;-72
2022/01/24 06:16:01;;;;;;;3.20;2.57;;;0.60;99.90;;;;;;5016096;28;20171;-73
2022/01/24 06:18:27;;;;;;;7.17;4.43;;;0.70;99.90;;;;;;5016781;28;20165;-70
2022/01/24 06:20:53;;;;;;;3.17;2.87;;;0.70;99.90;;;;;;5017420;28;20158;-72
2022/01/24 06:23:20;;;;;;;4.68;3.97;;;0.70;99.90;;;;;;5016983;28;20177;-70
2022/01/24 06:25:45;;;;;;;4.90;3.28;;;0.80;99.90;;;;;;5015686;28;20187;-72
2022/01/24 06:28:12;;;;;;;4.43;3.70;;;0.90;99.90;;;;;;5016180;28;20240;-71
2022/01/24 06:30:38;;;;;;;3.40;3.10;;;0.90;99.90;;;;;;5016692;28;20198;-70
2022/01/24 06:33:03;;;;;;;4.20;3.80;;;0.90;99.90;;;;;;5015361;28;20179;-71
2022/01/24 06:35:29;;;;;;;3.20;2.93;;;1.00;99.90;;;;;;5016397;28;20406;-71
2022/01/24 06:37:55;;;;;;;5.87;5.17;;;1.00;99.90;;;;;;5015986;28;20428;-66
2022/01/24 06:40:21;;;;;;;4.20;3.80;;;1.00;99.90;;;;;;5016570;28;20408;-67
2022/01/24 06:42:48;;;;;;;3.97;3.67;;;1.00;99.90;;;;;;5016533;28;20209;-70
2022/01/24 06:45:14;;;;;;;3.70;3.35;;;1.10;99.90;;;;;;5016733;28;20175;-71
2022/01/24 06:47:41;;;;;;;4.17;3.70;;;1.10;99.90;;;;;;5016105;28;20174;-71
2022/01/24 06:50:08;;;;;;;2.40;2.30;;;1.10;99.90;;;;;;5013497;28;20207;-72
2022/01/24 06:52:34;;;;;;;5.85;3.95;;;1.10;99.90;;;;;;5016242;28;20174;-71
2022/01/24 06:55:00;;;;;;;4.75;3.90;;;1.10;99.90;;;;;;5016297;28;20177;-71
2022/01/24 06:57:25;;;;;;;4.83;4.43;;;1.20;99.90;;;;;;5016422;28;20178;-71
2022/01/24 06:59:51;;;;;;;3.77;3.13;;;1.20;99.90;;;;;;5015902;28;20488;-70
2022/01/24 07:02:17;;;;;;;5.90;3.40;;;1.20;99.90;;;;;;5015974;28;20171;-70
2022/01/24 07:04:44;;;;;;;6.07;3.97;;;1.30;99.90;;;;;;5015905;28;20171;-71
2022/01/24 07:07:11;;;;;;;5.85;4.28;;;1.30;99.90;;;;;;5015420;28;20175;-72
2022/01/24 07:09:38;;;;;;;8.15;6.05;;;1.40;99.90;;;;;;5019391;28;20201;-72
2022/01/24 07:12:04;;;;;;;5.22;4.70;;;1.50;99.90;;;;;;5027365;28;20289;-70
2022/01/24 07:14:30;;;;;;;10.52;5.55;;;1.50;99.90;;;;;;5015941;28;20174;-75
2022/01/24 07:19:32;;;;;;;5.50;4.90;;;1.60;99.90;;;;;;5015287;28;20222;-74
2022/01/24 07:22:00;;;;;;;9.48;4.07;;;1.70;99.90;;;;;;5015804;28;20409;-72
2022/01/24 07:24:26;;;;;;;9.00;6.35;;;1.70;99.90;;;;;;5014904;28;20198;-72
2022/01/24 07:26:52;;;;;;;7.95;5.22;;;1.70;99.90;;;;;;5015770;28;20171;-72
2022/01/24 07:29:19;;;;;;;7.97;4.27;;;1.70;99.90;;;;;;5015280;28;20198;-72
2022/01/24 07:31:46;;;;;;;7.78;4.65;;;1.80;99.90;;;;;;5015469;28;20832;-72
2022/01/24 07:34:12;;;;;;;8.65;5.80;;;1.80;99.90;;;;;;4996351;28;20166;-73
2022/01/24 07:36:38;;;;;;;6.88;3.63;;;1.80;99.90;;;;;;5007135;28;20194;-72
2022/01/24 07:39:04;;;;;;;11.70;5.40;;;1.90;99.90;;;;;;5015223;28;20195;-71
2022/01/24 07:41:31;;;;;;;4.60;4.20;;;1.90;99.90;;;;;;5014755;28;20186;-70
2022/01/24 07:43:57;;;;;;;5.38;4.32;;;1.90;99.90;;;;;;5012694;28;20516;-72
2022/01/24 07:46:23;;;;;;;5.43;4.40;;;1.90;99.90;;;;;;5014327;28;20179;-72
2022/01/24 07:48:49;;;;;;;8.57;4.65;;;2.00;99.90;;;;;;5014103;28;20585;-72
2022/01/24 07:51:15;;;;;;;6.77;4.60;;;2.00;99.90;;;;;;5015346;28;20260;-73
2022/01/24 07:53:43;;;;;;;4.32;3.92;;;2.00;99.90;;;;;;5015432;28;20373;-71
2022/01/24 07:56:09;;;;;;;4.85;4.43;;;2.00;99.90;;;;;;5015349;28;20629;-71
2022/01/24 07:58:35;;;;;;;6.68;4.82;;;2.00;99.90;;;;;;5013357;28;20656;-70
2022/01/24 08:01:01;;;;;;;9.73;6.47;;;2.10;99.90;;;;;;5015210;28;20203;-72
2022/01/24 08:03:26;;;;;;;5.27;4.20;;;2.20;99.90;;;;;;5014574;28;20425;-71
2022/01/24 08:05:53;;;;;;;10.07;4.43;;;2.20;99.90;;;;;;5011214;28;20185;-71
2022/01/24 08:08:21;;;;;;;6.38;5.78;;;2.30;99.90;;;;;;4995264;28;20275;-73
2022/01/24 08:10:47;;;;;;;6.72;5.97;;;2.30;99.90;;;;;;4995175;28;20254;-70
2022/01/24 08:13:13;;;;;;;10.00;5.60;;;2.40;99.90;;;;;;4995377;28;20171;-71
2022/01/24 08:15:39;;;;;;;4.55;3.85;;;2.50;99.90;;;;;;4993689;28;20442;-71
2022/01/24 08:18:05;;;;;;;5.55;4.50;;;2.60;99.90;;;;;;5011487;28;20615;-71
2022/01/24 08:20:31;;;;;;;8.00;5.33;;;2.80;99.90;;;;;;5012976;28;20206;-71
2022/01/24 08:22:57;;;;;;;7.07;6.18;;;2.80;99.90;;;;;;5014634;28;20170;-71
2022/01/24 08:25:26;;;;;;;7.60;6.13;;;3.00;99.90;;;;;;5013009;28;20179;-72
2022/01/24 08:27:52;;;;;;;7.85;6.25;;;3.10;99.90;;;;;;5014191;28;20194;-72
2022/01/24 08:30:20;;;;;;;7.80;6.97;;;3.10;99.90;;;;;;5014225;28;20198;-72
2022/01/24 08:32:46;;;;;;;18.05;7.70;;;3.30;99.90;;;;;;5014198;28;20667;-72
2022/01/24 08:35:13;;;;;;;7.35;6.40;;;3.50;99.90;;;;;;5014580;28;20533;-70
2022/01/24 08:37:39;;;;;;;7.45;5.38;;;3.70;99.90;;;;;;5014343;28;20557;-72
2022/01/24 08:40:07;;;;;;;9.60;6.40;;;3.90;99.90;;;;;;5012053;28;20206;-72
2022/01/24 08:42:41;;;;;;;7.15;5.28;;;4.00;99.90;;;;;;5013962;28;20426;-71
2022/01/24 08:47:53;;;;;;;8.98;6.78;;;4.30;99.90;;;;;;4994601;28;20187;-72
2022/01/24 08:50:24;;;;;;;7.10;6.10;;;4.50;99.90;;;;;;4994365;28;20718;-71
2022/01/24 08:52:50;;;;;;;6.30;5.63;;;4.70;99.90;;;;;;4994443;28;20165;-70
2022/01/24 08:55:15;;;;;;;6.20;5.60;;;5.10;99.90;;;;;;5000141;28;20170;-70
2022/01/24 08:57:41;;;;;;;5.03;4.50;;;5.60;99.90;;;;;;4995298;28;20255;-71
2022/01/24 09:00:10;;;;;;;4.97;4.57;;;6.40;99.90;;;;;;5014043;28;20350;-70
2022/01/24 09:02:35;;;;;;;4.70;3.85;;;7.30;99.90;;;;;;5014030;28;20182;-71
2022/01/24 09:05:02;;;;;;;5.70;4.23;;;8.50;99.90;;;;;;5013918;28;20165;-71
2022/01/24 09:07:30;;;;;;;5.00;4.20;;;9.50;99.90;;;;;;5013623;28;20177;-73
2022/01/24 09:09:57;;;;;;;5.00;3.90;;;10.30;99.90;;;;;;5013664;28;20460;-71
2022/01/24 09:12:23;;;;;;;6.00;4.93;;;10.90;99.90;;;;;;5013959;28;20389;-71
2022/01/24 09:14:48;;;;;;;4.07;3.63;;;11.50;99.90;;;;;;5013828;28;20924;-71
2022/01/24 09:17:15;;;;;;;4.80;4.40;;;12.10;99.60;;;;;;5013040;28;20769;-72
2022/01/24 09:19:42;;;;;;;4.73;4.30;;;12.30;96.60;;;;;;5013052;28;20201;-72
2022/01/24 09:22:09;;;;;;;4.43;4.03;;;12.60;96.20;;;;;;5013583;28;20413;-72
2022/01/24 09:24:34;;;;;;;4.30;3.80;;;12.80;95.60;;;;;;5013455;28;20391;-72
2022/01/24 09:27:01;;;;;;;4.37;3.80;;;12.90;95.40;;;;;;5013506;28;20419;-71
2022/01/24 09:29:27;;;;;;;5.43;4.50;;;13.00;94.60;;;;;;5013291;28;20223;-71
2022/01/24 09:31:53;;;;;;;5.53;3.97;;;13.10;93.90;;;;;;5013726;28;20458;-71
2022/01/24 09:34:20;;;;;;;5.13;4.63;;;13.20;94.70;;;;;;5013571;28;20380;-70
2022/01/24 09:36:50;;;;;;;5.57;4.80;;;13.50;93.90;;;;;;5014152;28;20401;-71
2022/01/24 09:39:16;;;;;;;5.10;4.70;;;13.80;93.40;;;;;;5013102;28;20428;-72
2022/01/24 09:41:42;;;;;;;4.83;4.30;;;14.10;92.00;;;;;;5013617;28;20377;-71
2022/01/24 09:44:08;;;;;;;4.40;4.00;;;14.10;92.10;;;;;;5012358;28;20444;-70
2022/01/24 09:46:37;;;;;;;4.20;3.80;;;14.30;92.00;;;;;;5012439;28;20689;-70
2022/01/24 09:49:04;;;;;;;5.07;4.47;;;14.50;91.30;;;;;;5005681;28;20570;-71
2022/01/24 09:51:30;;;;;;;4.33;4.03;;;14.80;90.50;;;;;;5013342;28;20450;-68
2022/01/24 09:53:56;;;;;;;4.70;4.27;;;15.10;90.30;;;;;;5013556;28;20376;-69
2022/01/24 09:56:22;;;;;;;4.03;3.73;;;15.20;90.00;;;;;;5013583;28;20402;-69
2022/01/24 09:58:48;;;;;;;4.63;3.70;;;15.00;89.90;;;;;;5012253;28;20282;-68
2022/01/24 10:01:14;;;;;;;4.53;4.23;;;15.10;88.50;;;;;;5013379;28;20205;-70
2022/01/24 10:04:11;;;;;;;4.20;3.83;;;14.80;87.60;;;;;;5013579;28;20178;-69
2022/01/24 10:07:00;;;;;;;3.70;3.43;;;14.50;88.50;;;;;;5014749;28;20413;-69
2022/01/24 10:09:42;;;;;;;4.20;3.00;;;14.30;88.60;;;;;;5014695;28;20521;-69
2022/01/24 10:17:54;;;;;;;3.23;3.03;;;13.60;89.80;;;;;;5012512;28;20468;-68
2022/01/24 10:20:43;;;;;;;3.47;2.70;;;13.50;89.10;;;;;;5013579;28;20470;-69
2022/01/24 10:23:21;;;;;;;2.53;2.20;;;13.40;89.80;;;;;;5011983;28;20921;-70
2022/01/24 10:26:02;;;;;;;3.67;2.27;;;13.30;89.00;;;;;;5013464;28;20390;-69
2022/01/24 10:28:39;;;;;;;3.73;2.90;;;13.20;89.10;;;;;;5007407;28;20485;-69
2022/01/24 10:31:11;;;;;;;3.33;3.13;;;13.20;89.00;;;;;;5013145;28;20435;-69
2022/01/24 10:33:52;;;;;;;3.23;2.43;;;13.10;90.00;;;;;;5012852;28;20390;-69
2022/01/24 10:36:41;;;;;;;3.43;2.60;;;13.20;90.10;;;;;;5012655;28;20408;-70
2022/01/24 10:39:29;;;;;;;2.73;2.40;;;13.10;89.50;;;;;;5012893;28;20464;-69
2022/01/24 10:42:28;;;;;;;2.27;2.17;;;13.00;89.90;;;;;;5015634;28;20381;-71
2022/01/24 10:44:56;;;;;;;2.83;2.63;;;12.90;89.60;;;;;;5015923;28;20398;-70
2022/01/24 10:47:28;;;;;;;2.17;2.07;;;12.70;89.90;;;;;;5008674;28;20398;-73
2022/01/24 10:49:56;;;;;;;3.17;2.97;;;12.60;90.20;;;;;;4996729;28;20403;-72
2022/01/24 10:52:25;;;;;;;2.50;2.30;;;12.60;90.40;;;;;;4995575;28;20919;-74
2022/01/24 10:54:53;;;;;;;2.70;2.50;;;12.50;89.90;;;;;;5015840;28;20394;-72
2022/01/24 10:57:27;;;;;;;2.57;2.37;;;12.50;90.40;;;;;;5008265;28;20429;-76
2022/01/24 11:00:14;;;;;;;3.07;2.30;;;12.50;90.10;;;;;;4996504;28;20761;-74
2022/01/24 11:02:43;;;;;;;2.97;2.53;;;12.20;90.30;;;;;;5004546;28;20388;-74
2022/01/24 11:05:24;;;;;;;2.50;2.13;;;12.00;90.60;;;;;;5013425;28;20429;-74
2022/01/24 11:07:53;;;;;;;2.67;2.47;;;11.80;90.90;;;;;;5015383;28;20408;-74
2022/01/24 11:10:20;;;;;;;2.47;2.27;;;11.50;91.50;;;;;;5015695;28;20510;-72
2022/01/24 11:12:46;;;;;;;2.50;2.30;;;11.50;91.90;;;;;;5016450;28;20465;-73
2022/01/24 11:15:12;;;;;;;2.93;2.63;;;11.50;91.50;;;;;;5016237;28;20406;-72
2022/01/24 11:17:40;;;;;;;2.53;2.33;;;11.50;91.80;;;;;;5015138;28;20186;-73
2022/01/24 11:20:08;;;;;;;4.10;2.40;;;11.50;91.70;;;;;;5015534;28;20519;-72
2022/01/24 11:22:40;;;;;;;11.53;2.13;;;11.30;91.70;;;;;;5015718;28;20436;-72
2022/01/24 11:25:08;;;;;;;2.17;1.97;;;11.00;91.80;;;;;;5016056;28;20412;-73
2022/01/24 11:27:35;;;;;;;2.40;1.93;;;10.50;92.10;;;;;;5015657;28;20773;-72
2022/01/24 11:30:14;;;;;;;4.67;2.37;;;9.90;93.30;;;;;;5015509;28;20518;-72
2022/01/24 11:32:55;;;;;;;11.18;2.50;;;9.40;94.00;;;;;;5016436;28;20388;-72
2022/01/24 11:35:38;;;;;;;3.05;2.75;;;8.80;95.10;;;;;;5015608;28;20258;-72
2022/01/24 11:38:24;;;;;;;2.45;2.10;;;8.50;96.10;;;;;;5030528;28;20175;-70
2022/01/24 11:40:53;;;;;;;2.28;2.17;;;8.20;96.90;;;;;;5015689;28;20182;-72
2022/01/24 11:43:37;;;;;;;1.95;1.85;;;8.00;97.50;;;;;;5015756;28;20640;-73
2022/01/24 11:46:08;;;;;;;2.08;1.90;;;7.90;97.70;;;;;;5015520;28;20170;-75
2022/01/24 11:48:36;;;;;;;2.10;1.85;;;7.80;98.20;;;;;;5014477;28;20517;-73
2022/01/24 11:51:09;;;;;;;2.45;2.10;;;7.80;98.20;;;;;;5014256;28;20213;-72
2022/01/24 11:53:45;;;;;;;2.20;1.73;;;7.70;98.10;;;;;;5014438;28;20553;-72
2022/01/24 11:56:23;;;;;;;5.72;2.97;;;7.70;98.60;;;;;;5015476;28;20172;-72
2022/01/24 11:58:49;;;;;;;2.40;2.05;;;7.60;98.90;;;;;;5014901;28;20594;-71
2022/01/24 12:01:38;;;;;;;3.50;1.92;;;7.50;99.00;;;;;;5015339;28;20175;-72
2022/01/24 12:04:05;;;;;;;2.00;1.90;;;7.50;99.40;;;;;;5015155;28;20300;-74
2022/01/24 12:06:50;;;;;;;2.40;1.83;;;7.40;99.70;;;;;;5014835;28;20181;-73
2022/01/24 12:09:23;;;;;;;1.55;1.45;;;7.30;99.60;;;;;;5014689;28;20657;-72
2022/01/24 12:11:50;;;;;;;1.90;1.80;;;7.30;99.70;;;;;;5015115;28;20285;-72
2022/01/24 12:14:23;;;;;;;2.40;2.20;;;7.30;99.90;;;;;;5015176;28;20224;-72
2022/01/24 12:16:49;;;;;;;1.83;1.48;;;7.40;99.90;;;;;;5014444;28;20186;-72
2022/01/24 12:19:31;;;;;;;1.73;1.63;;;7.40;99.90;;;;;;5014686;28;20193;-72
2022/01/24 12:21:57;;;;;;;3.05;2.60;;;7.40;99.90;;;;;;5013432;28;20935;-73
2022/01/24 12:24:22;;;;;;;1.83;1.73;;;7.50;99.90;;;;;;5014897;28;20173;-72
2022/01/24 12:26:50;;;;;;;2.03;1.93;;;7.40;99.90;;;;;;5014976;28;20225;-70
2022/01/24 12:29:21;;;;;;;2.10;2.00;;;7.50;99.90;;;;;;5014469;28;20189;-71
2022/01/24 12:31:53;;;;;;;7.65;1.55;;;7.50;99.90;;;;;;5014925;28;20618;-75
2022/01/24 12:34:23;;;;;;;1.95;1.65;;;7.50;99.90;;;;;;5015105;28;20167;-74
2022/01/24 12:37:02;;;;;;;2.35;2.25;;;7.40;99.90;;;;;;5014466;28;20636;-73
2022/01/24 12:39:34;;;;;;;1.95;1.85;;;7.50;99.90;;;;;;5014032;28;20373;-72
2022/01/24 12:42:13;;;;;;;1.52;1.42;;;7.50;99.90;;;;;;5014703;28;20174;-72
2022/01/24 12:47:12;;;;;;;2.60;1.70;;;7.50;99.90;;;;;;5013425;28;20186;-73
2022/01/24 12:49:40;;;;;;;2.30;2.13;;;7.50;99.90;;;;;;5029343;28;20630;-72
2022/01/24 12:52:21;;;;;;;1.70;1.42;;;7.60;99.90;;;;;;5014005;28;20202;-72
2022/01/24 12:54:50;;;;;;;1.77;1.67;;;7.60;99.90;;;;;;5014264;28;20171;-73
2022/01/24 12:57:19;;;;;;;2.25;1.58;;;7.60;99.90;;;;;;5014313;28;20498;-72
2022/01/24 12:59:57;;;;;;;2.30;2.10;;;7.70;99.90;;;;;;5013548;28;20208;-72
2022/01/24 13:02:31;;;;;;;1.50;1.40;;;7.70;99.90;;;;;;5012767;28;20186;-74
2022/01/24 13:05:17;;;;;;;2.60;1.90;;;7.80;99.90;;;;;;5013519;28;20190;-74
2022/01/24 13:08:14;;;;;;;1.85;1.75;;;7.80;99.90;;;;;;5012890;28;20235;-74
2022/01/24 13:10:40;;;;;;;2.25;1.80;;;7.80;99.90;;;;;;5013455;28;20214;-72
2022/01/24 13:13:12;;;;;;;1.58;1.48;;;7.80;99.90;;;;;;5014056;28;20636;-74
2022/01/24 13:21:11;;;;;;;1.88;1.75;;;7.80;99.90;;;;;;5013190;28;20177;-74
2022/01/24 13:23:45;;;;;;;1.38;1.20;;;7.80;99.90;;;;;;5013778;28;20253;-75
2022/01/24 13:26:12;;;;;;;2.03;1.58;;;7.80;99.90;;;;;;5013531;28;20170;-75
2022/01/24 13:28:38;;;;;;;1.48;1.38;;;7.80;99.90;;;;;;5013038;28;20178;-75
2022/01/24 13:31:05;;;;;;;1.60;1.50;;;7.80;99.90;;;;;;5007739;28;20202;-76
2022/01/24 13:33:33;;;;;;;1.60;1.50;;;7.90;99.90;;;;;;5013796;28;20170;-74
2022/01/24 13:36:05;;;;;;;1.45;1.35;;;7.90;99.90;;;;;;5011650;28;20175;-74
2022/01/24 13:38:37;;;;;;;1.90;1.73;;;7.90;99.90;;;;;;5013009;28;20209;-74
2022/01/24 13:41:09;;;;;;;1.77;1.63;;;7.90;99.90;;;;;;4993927;28;20175;-73
2022/01/24 13:43:58;;;;;;;1.63;1.52;;;7.90;99.90;;;;;;5002328;28;20174;-73
2022/01/24 13:46:28;;;;;;;1.65;1.55;;;7.90;99.90;;;;;;5026072;28;20540;-71
2022/01/24 13:49:00;;;;;;;1.80;1.65;;;7.90;99.90;;;;;;5011784;28;20205;-71
2022/01/24 13:51:35;;;;;;;1.80;1.70;;;7.90;99.90;;;;;;5007438;28;20672;-73
2022/01/24 13:54:03;;;;;;;1.85;1.75;;;8.00;99.90;;;;;;5012990;28;20653;-72
2022/01/24 13:56:34;;;;;;;1.58;1.48;;;7.90;99.90;;;;;;5028340;28;20178;-71
2022/01/24 13:59:06;;;;;;;2.40;2.28;;;7.90;99.90;;;;;;5008230;28;20198;-73
2022/01/24 14:01:33;;;;;;;3.95;2.33;;;7.80;99.90;;;;;;4993897;28;20206;-72
2022/01/24 14:04:02;;;;;;;1.67;1.58;;;7.90;99.90;;;;;;5005480;28;20189;-72
2022/01/24 14:06:38;;;;;;;2.30;1.50;;;7.80;99.90;;;;;;5011801;28;20270;-70
2022/01/24 14:09:08;;;;;;;1.33;1.33;;;7.80;99.90;;;;;;5011569;28;20273;-71
2022/01/24 14:11:39;;;;;;;5.35;1.95;;;7.80;99.90;;;;;;5012098;28;20274;-73
2022/01/24 14:14:10;;;;;;;1.40;1.30;;;7.90;99.90;;;;;;5015538;28;20175;-74
2022/01/24 14:19:03;;;;;;;1.23;1.23;;;7.90;99.90;;;;;;5018313;28;20240;-73
2022/01/24 14:21:29;;;;;;;5.15;1.92;;;7.90;99.90;;;;;;5011966;28;20175;-72
2022/01/24 14:23:55;;;;;;;2.00;1.90;;;7.90;99.90;;;;;;5014630;28;20179;-71
2022/01/24 14:26:27;;;;;;;1.20;1.10;;;7.80;99.90;;;;;;5025591;28;20168;-71
2022/01/24 14:29:12;;;;;;;2.00;1.52;;;7.90;99.90;;;;;;5016853;28;20190;-72
2022/01/24 14:31:44;;;;;;;1.50;1.15;;;7.90;99.90;;;;;;5016730;28;20301;-73
2022/01/24 14:34:15;;;;;;;1.50;1.40;;;7.80;99.90;;;;;;5016266;28;20178;-73
2022/01/24 14:36:40;;;;;;;1.55;1.35;;;7.90;99.90;;;;;;5016889;28;20171;-70
2022/01/24 14:39:11;;;;;;;1.33;1.33;;;7.90;99.90;;;;;;5015961;28;20198;-69
2022/01/24 14:41:45;;;;;;;1.73;1.55;;;7.90;99.90;;;;;;5012936;28;20179;-68
2022/01/24 14:46:57;;;;;;;1.65;1.55;;;7.90;99.90;;;;;;5009611;28;20177;-74
2022/01/24 14:49:32;;;;;;;1.63;1.52;;;7.80;99.90;;;;;;5015197;28;20190;-69
2022/01/24 14:52:05;;;;;;;2.25;1.98;;;7.90;99.90;;;;;;5016285;28;20215;-73
2022/01/24 14:54:42;;;;;;;1.88;1.50;;;7.90;99.90;;;;;;5016654;28;20175;-75
2022/01/24 14:57:09;;;;;;;2.20;1.98;;;7.90;99.90;;;;;;5015090;28;20718;-72
2022/01/24 14:59:38;;;;;;;1.70;1.60;;;7.80;99.90;;;;;;5015944;28;20696;-71
2022/01/24 15:02:04;;;;;;;1.75;1.65;;;7.80;99.90;;;;;;5016006;28;20229;-72
2022/01/24 15:04:30;;;;;;;4.40;3.42;;;7.80;99.90;;;;;;5016564;28;20203;-74
2022/01/24 15:06:56;;;;;;;1.88;1.77;;;7.80;99.90;;;;;;5016325;28;20196;-75
2022/01/24 15:09:26;;;;;;;1.90;1.40;;;7.70;99.90;;;;;;5016060;28;20201;-74
2022/01/24 15:11:53;;;;;;;1.83;1.73;;;7.70;99.90;;;;;;5015465;28;20202;-70
2022/01/24 15:14:28;;;;;;;1.92;1.50;;;7.70;99.90;;;;;;5015520;28;20611;-76
2022/01/24 15:17:27;;;;;;;2.38;2.17;;;7.70;99.90;;;;;;5015312;28;20196;-75
2022/01/24 15:25:24;;;;;;;1.90;1.65;;;7.60;99.90;;;;;;5015711;28;20189;-72
2022/01/24 15:27:52;;;;;;;5.80;1.98;;;7.60;99.90;;;;;;5015457;28;20202;-72